<?xml version="1.0" encoding="UTF-8" standalone="no" ?>
<gpx xmlns="http://www.topografix.com/GPX/1/1" xmlns:xsi="http://www.w3.org/2001/XMLSchema-instance" xsi:schemaLocation="http://www.topografix.com/GPX/1/1 http://www.topografix.com/GPX/1/1/gpx.xsd" version="1.1" creator="VisuGPX - https://www.visugpx.com">
  <metadata>
    <name>But au port de Bataillance</name>
    <desc><![CDATA[But au port de Bataillance, itinéraire depuis le tunnel de Bielsa]]></desc>
  </metadata>
  <trk>
    <name><![CDATA[2017-02-24 09:53]]></name>
    <desc><![CDATA[<p>Heure de départ: 02/24/2017 09:53<br/>Heure d'arrivée: 02/24/2017 11:33<br/>Distance: 2,7 km (01:40)<br/>Temps déplacement: 00:43<br/>Vitesse moyenne: 1,59 km/h<br/>Vitesse moyenne mouv.: 3,69 km/h<br/>Vitesse Max.: 18,5 km/h<br/>Altitude minimale: 1798 m<br/>Altitude maximale: 2166 m<br/>Vitesse de montée: 304,9 m/h<br/>Vitesse de descente: -730,7 m/h<br/>Gain d'altitude: 361 m<br/>Perte d'altitude: -338 m<br/>Temps de montée: 01:11<br/>Temps de descente: 00:27<br/></p><hr align="center" width="480" style="height: 2px; width: 517px"/>]]></desc>
    <trkseg>
      <trkpt lat="42.74803" lon="0.19195">
        <ele>1801.27</ele>
        <time>2017-02-24T08:53:27Z</time>
      </trkpt>
      <trkpt lat="42.74784" lon="0.19198">
        <ele>1799.19</ele>
        <time>2017-02-24T08:55:25Z</time>
      </trkpt>
      <trkpt lat="42.74767" lon="0.1921">
        <ele>1798.43</ele>
        <time>2017-02-24T08:55:49Z</time>
      </trkpt>
      <trkpt lat="42.7475" lon="0.19221">
        <ele>1806.07</ele>
        <time>2017-02-24T08:56:13Z</time>
      </trkpt>
      <trkpt lat="42.74735" lon="0.19234">
        <ele>1813.02</ele>
        <time>2017-02-24T08:56:47Z</time>
      </trkpt>
      <trkpt lat="42.7472" lon="0.19247">
        <ele>1820.07</ele>
        <time>2017-02-24T08:57:29Z</time>
      </trkpt>
      <trkpt lat="42.74709" lon="0.19269">
        <ele>1820.99</ele>
        <time>2017-02-24T08:57:58Z</time>
      </trkpt>
      <trkpt lat="42.74698" lon="0.1929">
        <ele>1826.46</ele>
        <time>2017-02-24T08:58:32Z</time>
      </trkpt>
      <trkpt lat="42.74695" lon="0.19315">
        <ele>1840.94</ele>
        <time>2017-02-24T09:01:07Z</time>
      </trkpt>
      <trkpt lat="42.74693" lon="0.1934">
        <ele>1835.25</ele>
        <time>2017-02-24T09:01:33Z</time>
      </trkpt>
      <trkpt lat="42.74681" lon="0.1936">
        <ele>1840.67</ele>
        <time>2017-02-24T09:02:08Z</time>
      </trkpt>
      <trkpt lat="42.74671" lon="0.19379">
        <ele>1844.25</ele>
        <time>2017-02-24T09:02:45Z</time>
      </trkpt>
      <trkpt lat="42.74654" lon="0.19391">
        <ele>1861.34</ele>
        <time>2017-02-24T09:03:33Z</time>
      </trkpt>
      <trkpt lat="42.74638" lon="0.19402">
        <ele>1871.27</ele>
        <time>2017-02-24T09:04:09Z</time>
      </trkpt>
      <trkpt lat="42.7462" lon="0.19405">
        <ele>1881.05</ele>
        <time>2017-02-24T09:04:45Z</time>
      </trkpt>
      <trkpt lat="42.74601" lon="0.19411">
        <ele>1895.03</ele>
        <time>2017-02-24T09:05:25Z</time>
      </trkpt>
      <trkpt lat="42.74584" lon="0.19409">
        <ele>1903.26</ele>
        <time>2017-02-24T09:06:03Z</time>
      </trkpt>
      <trkpt lat="42.74566" lon="0.19405">
        <ele>1913.28</ele>
        <time>2017-02-24T09:06:48Z</time>
      </trkpt>
      <trkpt lat="42.74548" lon="0.19409">
        <ele>1915.43</ele>
        <time>2017-02-24T09:07:34Z</time>
      </trkpt>
      <trkpt lat="42.74529" lon="0.19409">
        <ele>1919.07</ele>
        <time>2017-02-24T09:08:04Z</time>
      </trkpt>
      <trkpt lat="42.74517" lon="0.1939">
        <ele>1924.23</ele>
        <time>2017-02-24T09:10:40Z</time>
      </trkpt>
      <trkpt lat="42.74499" lon="0.19386">
        <ele>1934.06</ele>
        <time>2017-02-24T09:11:10Z</time>
      </trkpt>
      <trkpt lat="42.74483" lon="0.19374">
        <ele>1931.26</ele>
        <time>2017-02-24T09:11:51Z</time>
      </trkpt>
      <trkpt lat="42.74466" lon="0.19369">
        <ele>1940.28</ele>
        <time>2017-02-24T09:12:31Z</time>
      </trkpt>
      <trkpt lat="42.74447" lon="0.19367">
        <ele>1941.23</ele>
        <time>2017-02-24T09:13:03Z</time>
      </trkpt>
      <trkpt lat="42.74429" lon="0.19365">
        <ele>1943.31</ele>
        <time>2017-02-24T09:13:39Z</time>
      </trkpt>
      <trkpt lat="42.74411" lon="0.19361">
        <ele>1945.31</ele>
        <time>2017-02-24T09:14:23Z</time>
      </trkpt>
      <trkpt lat="42.74394" lon="0.19351">
        <ele>1945.02</ele>
        <time>2017-02-24T09:14:57Z</time>
      </trkpt>
      <trkpt lat="42.74381" lon="0.19334">
        <ele>1949.07</ele>
        <time>2017-02-24T09:15:38Z</time>
      </trkpt>
      <trkpt lat="42.74363" lon="0.19331">
        <ele>1954.19</ele>
        <time>2017-02-24T09:17:49Z</time>
      </trkpt>
      <trkpt lat="42.74347" lon="0.19317">
        <ele>1966.25</ele>
        <time>2017-02-24T09:19:25Z</time>
      </trkpt>
      <trkpt lat="42.74329" lon="0.19313">
        <ele>1971.22</ele>
        <time>2017-02-24T09:20:03Z</time>
      </trkpt>
      <trkpt lat="42.74312" lon="0.19302">
        <ele>1979.39</ele>
        <time>2017-02-24T09:20:41Z</time>
      </trkpt>
      <trkpt lat="42.74295" lon="0.19295">
        <ele>1989.26</ele>
        <time>2017-02-24T09:21:16Z</time>
      </trkpt>
      <trkpt lat="42.74276" lon="0.19296">
        <ele>1992.47</ele>
        <time>2017-02-24T09:21:47Z</time>
      </trkpt>
      <trkpt lat="42.74258" lon="0.193">
        <ele>1995.51</ele>
        <time>2017-02-24T09:22:31Z</time>
      </trkpt>
      <trkpt lat="42.7424" lon="0.19298">
        <ele>1999.28</ele>
        <time>2017-02-24T09:23:12Z</time>
      </trkpt>
      <trkpt lat="42.74222" lon="0.19305">
        <ele>2007.07</ele>
        <time>2017-02-24T09:23:47Z</time>
      </trkpt>
      <trkpt lat="42.74205" lon="0.19314">
        <ele>2020.23</ele>
        <time>2017-02-24T09:24:29Z</time>
      </trkpt>
      <trkpt lat="42.74187" lon="0.1932">
        <ele>2021.24</ele>
        <time>2017-02-24T09:25:13Z</time>
      </trkpt>
      <trkpt lat="42.74171" lon="0.19331">
        <ele>2021.23</ele>
        <time>2017-02-24T09:26:05Z</time>
      </trkpt>
      <trkpt lat="42.74157" lon="0.19347">
        <ele>2026.23</ele>
        <time>2017-02-24T09:26:52Z</time>
      </trkpt>
      <trkpt lat="42.74142" lon="0.19359">
        <ele>2056.06</ele>
        <time>2017-02-24T09:28:21Z</time>
      </trkpt>
      <trkpt lat="42.74127" lon="0.19377">
        <ele>2059.51</ele>
        <time>2017-02-24T09:29:21Z</time>
      </trkpt>
      <trkpt lat="42.74111" lon="0.19388">
        <ele>2051.27</ele>
        <time>2017-02-24T09:30:07Z</time>
      </trkpt>
      <trkpt lat="42.74094" lon="0.19399">
        <ele>2056.07</ele>
        <time>2017-02-24T09:30:55Z</time>
      </trkpt>
      <trkpt lat="42.74076" lon="0.19404">
        <ele>2060.23</ele>
        <time>2017-02-24T09:32:31Z</time>
      </trkpt>
      <trkpt lat="42.74058" lon="0.1941">
        <ele>2065.03</ele>
        <time>2017-02-24T09:32:54Z</time>
      </trkpt>
      <trkpt lat="42.74043" lon="0.19397">
        <ele>2086.27</ele>
        <time>2017-02-24T09:33:39Z</time>
      </trkpt>
      <trkpt lat="42.74026" lon="0.19389">
        <ele>2092.27</ele>
        <time>2017-02-24T09:35:52Z</time>
      </trkpt>
      <trkpt lat="42.74008" lon="0.19394">
        <ele>2097.23</ele>
        <time>2017-02-24T09:36:25Z</time>
      </trkpt>
      <trkpt lat="42.7399" lon="0.19395">
        <ele>2106.06</ele>
        <time>2017-02-24T09:38:31Z</time>
      </trkpt>
      <trkpt lat="42.73972" lon="0.19391">
        <ele>2107.24</ele>
        <time>2017-02-24T09:39:49Z</time>
      </trkpt>
      <trkpt lat="42.73956" lon="0.19378">
        <ele>2132.28</ele>
        <time>2017-02-24T09:54:30Z</time>
      </trkpt>
      <trkpt lat="42.7394" lon="0.19366">
        <ele>2141.43</ele>
        <time>2017-02-24T09:55:38Z</time>
      </trkpt>
      <trkpt lat="42.73929" lon="0.19386">
        <ele>2157.3</ele>
        <time>2017-02-24T10:03:23Z</time>
      </trkpt>
      <trkpt lat="42.73921" lon="0.19409">
        <ele>2152.22</ele>
        <time>2017-02-24T10:03:51Z</time>
      </trkpt>
      <trkpt lat="42.73918" lon="0.19434">
        <ele>2159.67</ele>
        <time>2017-02-24T10:04:18Z</time>
      </trkpt>
      <trkpt lat="42.73916" lon="0.19458">
        <ele>2163.23</ele>
        <time>2017-02-24T10:04:41Z</time>
      </trkpt>
      <trkpt lat="42.7391" lon="0.19482">
        <ele>2164.27</ele>
        <time>2017-02-24T10:05:09Z</time>
      </trkpt>
      <trkpt lat="42.73903" lon="0.19459">
        <ele>2165.27</ele>
        <time>2017-02-24T10:19:29Z</time>
      </trkpt>
      <trkpt lat="42.73912" lon="0.19436">
        <ele>2165.43</ele>
        <time>2017-02-24T10:19:38Z</time>
      </trkpt>
      <trkpt lat="42.73918" lon="0.19409">
        <ele>2166.31</ele>
        <time>2017-02-24T10:19:49Z</time>
      </trkpt>
      <trkpt lat="42.73924" lon="0.19384">
        <ele>2164.48</ele>
        <time>2017-02-24T10:19:57Z</time>
      </trkpt>
      <trkpt lat="42.73924" lon="0.19358">
        <ele>2161.47</ele>
        <time>2017-02-24T10:20:06Z</time>
      </trkpt>
      <trkpt lat="42.73928" lon="0.19332">
        <ele>2159.88</ele>
        <time>2017-02-24T10:20:15Z</time>
      </trkpt>
      <trkpt lat="42.73936" lon="0.19305">
        <ele>2158.47</ele>
        <time>2017-02-24T10:20:22Z</time>
      </trkpt>
      <trkpt lat="42.73945" lon="0.19283">
        <ele>2152.47</ele>
        <time>2017-02-24T10:20:28Z</time>
      </trkpt>
      <trkpt lat="42.73955" lon="0.19263">
        <ele>2154.07</ele>
        <time>2017-02-24T10:20:40Z</time>
      </trkpt>
      <trkpt lat="42.73971" lon="0.19247">
        <ele>2154.3</ele>
        <time>2017-02-24T10:21:17Z</time>
      </trkpt>
      <trkpt lat="42.73987" lon="0.19234">
        <ele>2151.31</ele>
        <time>2017-02-24T10:21:26Z</time>
      </trkpt>
      <trkpt lat="42.74007" lon="0.19228">
        <ele>2144.55</ele>
        <time>2017-02-24T10:21:38Z</time>
      </trkpt>
      <trkpt lat="42.74025" lon="0.1923">
        <ele>2136.72</ele>
        <time>2017-02-24T10:21:48Z</time>
      </trkpt>
      <trkpt lat="42.74044" lon="0.19224">
        <ele>2124.32</ele>
        <time>2017-02-24T10:22:03Z</time>
      </trkpt>
      <trkpt lat="42.74058" lon="0.19241">
        <ele>2116.55</ele>
        <time>2017-02-24T10:22:13Z</time>
      </trkpt>
      <trkpt lat="42.74076" lon="0.1924">
        <ele>2110.29</ele>
        <time>2017-02-24T10:22:19Z</time>
      </trkpt>
      <trkpt lat="42.74092" lon="0.19258">
        <ele>2101.61</ele>
        <time>2017-02-24T10:22:56Z</time>
      </trkpt>
      <trkpt lat="42.74091" lon="0.19283">
        <ele>2098.48</ele>
        <time>2017-02-24T10:23:00Z</time>
      </trkpt>
      <trkpt lat="42.74099" lon="0.19306">
        <ele>2086.44</ele>
        <time>2017-02-24T10:23:10Z</time>
      </trkpt>
      <trkpt lat="42.74116" lon="0.19292">
        <ele>2083.51</ele>
        <time>2017-02-24T10:23:16Z</time>
      </trkpt>
      <trkpt lat="42.74126" lon="0.19266">
        <ele>2084.07</ele>
        <time>2017-02-24T10:23:23Z</time>
      </trkpt>
      <trkpt lat="42.74133" lon="0.19242">
        <ele>2080.35</ele>
        <time>2017-02-24T10:23:28Z</time>
      </trkpt>
      <trkpt lat="42.74143" lon="0.19263">
        <ele>2070.69</ele>
        <time>2017-02-24T10:23:35Z</time>
      </trkpt>
      <trkpt lat="42.74161" lon="0.19256">
        <ele>2050.07</ele>
        <time>2017-02-24T10:24:02Z</time>
      </trkpt>
      <trkpt lat="42.7418" lon="0.19249">
        <ele>2042.51</ele>
        <time>2017-02-24T10:24:23Z</time>
      </trkpt>
      <trkpt lat="42.74179" lon="0.19276">
        <ele>2041.26</ele>
        <time>2017-02-24T10:24:28Z</time>
      </trkpt>
      <trkpt lat="42.74197" lon="0.19282">
        <ele>2028.27</ele>
        <time>2017-02-24T10:25:45Z</time>
      </trkpt>
      <trkpt lat="42.7422" lon="0.19284">
        <ele>2018.26</ele>
        <time>2017-02-24T10:25:57Z</time>
      </trkpt>
      <trkpt lat="42.7424" lon="0.19278">
        <ele>2014.92</ele>
        <time>2017-02-24T10:26:05Z</time>
      </trkpt>
      <trkpt lat="42.74259" lon="0.19293">
        <ele>2010.36</ele>
        <time>2017-02-24T10:26:12Z</time>
      </trkpt>
      <trkpt lat="42.74276" lon="0.19306">
        <ele>2004.63</ele>
        <time>2017-02-24T10:26:22Z</time>
      </trkpt>
      <trkpt lat="42.74294" lon="0.19303">
        <ele>1999.26</ele>
        <time>2017-02-24T10:26:46Z</time>
      </trkpt>
      <trkpt lat="42.74313" lon="0.19306">
        <ele>1995.35</ele>
        <time>2017-02-24T10:26:51Z</time>
      </trkpt>
      <trkpt lat="42.74333" lon="0.19303">
        <ele>1993.27</ele>
        <time>2017-02-24T10:26:56Z</time>
      </trkpt>
      <trkpt lat="42.74353" lon="0.19296">
        <ele>1989.28</ele>
        <time>2017-02-24T10:27:01Z</time>
      </trkpt>
      <trkpt lat="42.74369" lon="0.19313">
        <ele>1985.67</ele>
        <time>2017-02-24T10:27:08Z</time>
      </trkpt>
      <trkpt lat="42.74389" lon="0.1931">
        <ele>1985.3</ele>
        <time>2017-02-24T10:27:15Z</time>
      </trkpt>
      <trkpt lat="42.74407" lon="0.19311">
        <ele>1983.63</ele>
        <time>2017-02-24T10:27:20Z</time>
      </trkpt>
      <trkpt lat="42.74418" lon="0.1933">
        <ele>1980.55</ele>
        <time>2017-02-24T10:27:25Z</time>
      </trkpt>
      <trkpt lat="42.74438" lon="0.19338">
        <ele>1976.15</ele>
        <time>2017-02-24T10:27:32Z</time>
      </trkpt>
      <trkpt lat="42.74455" lon="0.19348">
        <ele>1955.5</ele>
        <time>2017-02-24T10:28:14Z</time>
      </trkpt>
      <trkpt lat="42.74476" lon="0.19347">
        <ele>1953.02</ele>
        <time>2017-02-24T10:28:22Z</time>
      </trkpt>
      <trkpt lat="42.74494" lon="0.19351">
        <ele>1949.44</ele>
        <time>2017-02-24T10:28:27Z</time>
      </trkpt>
      <trkpt lat="42.74514" lon="0.19349">
        <ele>1944.34</ele>
        <time>2017-02-24T10:28:32Z</time>
      </trkpt>
      <trkpt lat="42.74534" lon="0.19353">
        <ele>1940.47</ele>
        <time>2017-02-24T10:28:49Z</time>
      </trkpt>
      <trkpt lat="42.74539" lon="0.19378">
        <ele>1930.54</ele>
        <time>2017-02-24T10:29:08Z</time>
      </trkpt>
      <trkpt lat="42.74558" lon="0.19381">
        <ele>1932.23</ele>
        <time>2017-02-24T10:29:12Z</time>
      </trkpt>
      <trkpt lat="42.74577" lon="0.19377">
        <ele>1927.47</ele>
        <time>2017-02-24T10:29:18Z</time>
      </trkpt>
      <trkpt lat="42.74597" lon="0.19383">
        <ele>1919.87</ele>
        <time>2017-02-24T10:29:30Z</time>
      </trkpt>
      <trkpt lat="42.74617" lon="0.19384">
        <ele>1920.05</ele>
        <time>2017-02-24T10:29:42Z</time>
      </trkpt>
      <trkpt lat="42.74636" lon="0.19379">
        <ele>1904.08</ele>
        <time>2017-02-24T10:29:56Z</time>
      </trkpt>
      <trkpt lat="42.74656" lon="0.19381">
        <ele>1899.71</ele>
        <time>2017-02-24T10:30:01Z</time>
      </trkpt>
      <trkpt lat="42.74666" lon="0.19359">
        <ele>1896.24</ele>
        <time>2017-02-24T10:30:08Z</time>
      </trkpt>
      <trkpt lat="42.74672" lon="0.19336">
        <ele>1887.46</ele>
        <time>2017-02-24T10:30:49Z</time>
      </trkpt>
      <trkpt lat="42.7469" lon="0.19335">
        <ele>1872.91</ele>
        <time>2017-02-24T10:30:57Z</time>
      </trkpt>
      <trkpt lat="42.74695" lon="0.1931">
        <ele>1870.07</ele>
        <time>2017-02-24T10:31:04Z</time>
      </trkpt>
      <trkpt lat="42.74689" lon="0.19284">
        <ele>1873.91</ele>
        <time>2017-02-24T10:31:29Z</time>
      </trkpt>
      <trkpt lat="42.74687" lon="0.19257">
        <ele>1869.52</ele>
        <time>2017-02-24T10:31:33Z</time>
      </trkpt>
      <trkpt lat="42.74697" lon="0.19229">
        <ele>1868.2</ele>
        <time>2017-02-24T10:31:38Z</time>
      </trkpt>
      <trkpt lat="42.74711" lon="0.19207">
        <ele>1856.68</ele>
        <time>2017-02-24T10:31:43Z</time>
      </trkpt>
      <trkpt lat="42.74722" lon="0.19184">
        <ele>1856.46</ele>
        <time>2017-02-24T10:31:47Z</time>
      </trkpt>
      <trkpt lat="42.74739" lon="0.19195">
        <ele>1848.54</ele>
        <time>2017-02-24T10:31:53Z</time>
      </trkpt>
      <trkpt lat="42.74758" lon="0.19194">
        <ele>1834.76</ele>
        <time>2017-02-24T10:32:06Z</time>
      </trkpt>
      <trkpt lat="42.74775" lon="0.19204">
        <ele>1827.34</ele>
        <time>2017-02-24T10:32:19Z</time>
      </trkpt>
      <trkpt lat="42.74791" lon="0.19192">
        <ele>1825.09</ele>
        <time>2017-02-24T10:32:27Z</time>
      </trkpt>
      <trkpt lat="42.74809" lon="0.19184">
        <ele>1829.43</ele>
        <time>2017-02-24T10:33:35Z</time>
      </trkpt>
      <trkpt lat="42.74818" lon="0.19163">
        <ele>1821.29</ele>
        <time>2017-02-24T10:33:57Z</time>
      </trkpt>
    </trkseg>
  </trk>
</gpx>